createdAt,value
2024-05-09T00:00:55.618Z,9.50
2024-05-09T00:01:55.644Z,9.47
2024-05-09T00:02:55.634Z,9.45
2024-05-09T00:03:55.715Z,9.44
2024-05-09T00:04:55.658Z,9.42
2024-05-09T00:05:55.636Z,9.41
2024-05-09T00:06:55.543Z,9.38
2024-05-09T00:07:55.588Z,9.37
2024-05-09T00:08:55.546Z,9.35
2024-05-09T00:09:55.550Z,9.32
2024-05-09T00:10:55.624Z,9.30
2024-05-09T00:11:55.606Z,9.29
2024-05-09T00:12:55.541Z,9.26
2024-05-09T00:13:55.564Z,9.26
2024-05-09T00:14:55.509Z,9.23
2024-05-09T00:15:55.508Z,9.23
2024-05-09T00:16:55.555Z,9.21
2024-05-09T00:17:55.713Z,9.19
2024-05-09T00:18:55.623Z,9.17
2024-05-09T00:19:55.495Z,9.17
2024-05-09T00:20:55.524Z,9.14
2024-05-09T00:21:55.493Z,9.14
2024-05-09T00:22:55.514Z,9.12
2024-05-09T00:23:55.475Z,9.12
2024-05-09T00:24:55.464Z,9.11
2024-05-09T00:25:55.500Z,9.09
2024-05-09T00:26:55.453Z,9.08
2024-05-09T00:27:55.475Z,9.05
2024-05-09T00:28:55.463Z,9.05
2024-05-09T00:29:55.422Z,9.03
2024-05-09T00:30:55.418Z,9.04
2024-05-09T00:31:55.485Z,9.03
2024-05-09T00:32:55.575Z,9.01
2024-05-09T00:33:55.511Z,9.00
2024-05-09T00:34:55.443Z,9.00
2024-05-09T00:35:55.400Z,8.98
2024-05-09T00:36:55.380Z,8.97
2024-05-09T00:37:55.473Z,8.94
2024-05-09T00:38:55.389Z,8.94
2024-05-09T00:39:55.366Z,8.94
2024-05-09T00:40:55.404Z,8.92
2024-05-09T00:41:55.354Z,8.92
2024-05-09T00:42:55.356Z,8.90
2024-05-09T00:43:55.410Z,8.90
2024-05-09T00:44:55.358Z,8.87
2024-05-09T00:45:55.344Z,8.87
2024-05-09T00:46:55.456Z,8.87
2024-05-09T00:47:55.452Z,8.85
2024-05-09T00:48:55.547Z,8.85
2024-05-09T00:49:55.390Z,8.82
2024-05-09T00:50:55.339Z,8.80
2024-05-09T00:51:55.319Z,8.79
2024-05-09T00:52:55.342Z,8.77
2024-05-09T00:53:55.288Z,8.77
2024-05-09T00:54:55.276Z,8.76
2024-05-09T00:56:55.308Z,8.71
2024-05-09T00:57:55.279Z,8.71
2024-05-09T00:58:55.323Z,8.68
2024-05-09T00:59:55.257Z,8.68
2024-05-09T01:00:55.272Z,8.67
2024-05-09T01:01:55.378Z,8.65
2024-05-09T01:02:55.393Z,8.64
2024-05-09T01:03:55.448Z,8.62
2024-05-09T01:04:55.440Z,8.61
2024-05-09T01:05:55.260Z,8.61
2024-05-09T01:06:55.225Z,8.61
2024-05-09T01:07:55.272Z,8.58
2024-05-09T01:08:55.221Z,8.58
2024-05-09T01:09:55.244Z,8.57
2024-05-09T01:13:30.850Z,8.57
2024-05-09T01:14:30.910Z,8.52
2024-05-09T01:15:30.870Z,8.53
2024-05-09T01:16:30.828Z,8.52
2024-05-09T01:17:31.187Z,8.52
2024-05-09T01:18:30.926Z,8.50
2024-05-09T01:19:31.025Z,8.49
2024-05-09T01:20:39.942Z,8.49
2024-05-09T01:21:31.813Z,8.49
2024-05-09T01:22:30.796Z,8.46
2024-05-09T01:23:30.972Z,8.47
2024-05-09T01:24:30.824Z,8.44
2024-05-09T01:25:30.798Z,8.43
2024-05-09T01:26:30.897Z,8.43
2024-05-09T01:27:30.773Z,8.42
2024-05-09T01:28:30.775Z,8.39
2024-05-09T01:29:30.846Z,8.39
2024-05-09T01:30:34.576Z,8.35
2024-05-09T01:31:30.781Z,8.35
2024-05-09T01:32:30.920Z,8.34
2024-05-09T01:33:30.997Z,8.32
2024-05-09T01:34:30.732Z,8.32
2024-05-09T01:35:30.794Z,8.31
2024-05-09T01:36:30.711Z,8.29
2024-05-09T01:37:30.696Z,8.28
2024-05-09T01:38:31.052Z,8.28
2024-05-09T01:39:30.689Z,8.26
2024-05-09T01:40:37.340Z,8.25
2024-05-09T01:41:31.756Z,8.25
2024-05-09T01:42:30.686Z,8.24
2024-05-09T01:43:30.657Z,8.22
2024-05-09T01:44:30.754Z,8.24
2024-05-09T01:45:30.640Z,8.19
2024-05-09T01:46:30.657Z,8.21
2024-05-09T01:47:30.907Z,8.19
2024-05-09T01:48:30.696Z,8.17
2024-05-09T01:49:30.734Z,8.17
2024-05-09T01:50:37.817Z,8.17
2024-05-09T01:51:31.630Z,8.16
2024-05-09T01:52:30.601Z,8.17
2024-05-09T01:53:30.773Z,8.17
2024-05-09T01:54:30.646Z,8.17
2024-05-09T01:55:30.587Z,8.17
2024-05-09T01:56:30.829Z,8.16
2024-05-09T01:57:30.613Z,8.14
2024-05-09T01:58:30.586Z,8.16
2024-05-09T01:59:30.624Z,8.14
2024-05-09T02:00:38.183Z,8.13
2024-05-09T02:01:31.667Z,8.13
2024-05-09T02:02:31.616Z,8.11
2024-05-09T02:03:30.685Z,8.10
2024-05-09T02:04:30.790Z,8.10
2024-05-09T02:05:30.567Z,8.10
2024-05-09T02:06:30.531Z,8.10
2024-05-09T02:07:30.572Z,8.09
2024-05-09T02:08:30.622Z,8.09
2024-05-09T02:09:30.534Z,8.06
2024-05-09T02:10:32.931Z,8.06
2024-05-09T02:11:30.580Z,8.06
2024-05-09T02:12:30.605Z,8.04
2024-05-09T02:13:30.581Z,8.03
2024-05-09T02:14:30.593Z,8.04
2024-05-09T02:15:30.466Z,8.03
2024-05-09T02:16:30.476Z,8.01
2024-05-09T02:17:30.678Z,7.99
2024-05-09T02:18:30.521Z,7.98
2024-05-09T02:19:30.672Z,7.98
2024-05-09T02:20:35.929Z,7.96
2024-05-09T02:21:30.430Z,7.95
2024-05-09T02:22:30.453Z,7.95
2024-05-09T02:23:30.512Z,7.95
2024-05-09T02:24:30.432Z,7.93
2024-05-09T02:25:30.452Z,7.95
2024-05-09T02:26:30.440Z,7.93
2024-05-09T02:27:30.414Z,7.93
2024-05-09T02:28:30.403Z,7.93
2024-05-09T02:29:30.438Z,7.92
2024-05-09T02:30:38.565Z,7.91
2024-05-09T02:31:31.397Z,7.91
2024-05-09T02:32:30.589Z,7.91
2024-05-09T02:33:30.672Z,7.88
2024-05-09T02:34:30.432Z,7.88
2024-05-09T02:35:30.437Z,7.88
2024-05-09T02:36:30.341Z,7.86
2024-05-09T02:37:30.374Z,7.85
2024-05-09T02:38:30.518Z,7.82
2024-05-09T02:39:30.333Z,7.83
2024-05-09T02:40:36.724Z,7.82
2024-05-09T02:41:31.459Z,7.78
2024-05-09T02:42:30.311Z,7.80
2024-05-09T02:43:30.345Z,7.78
2024-05-09T02:44:30.366Z,7.77
2024-05-09T02:45:30.301Z,7.75
2024-05-09T02:46:30.293Z,7.75
2024-05-09T02:47:30.545Z,7.74
2024-05-09T02:48:30.373Z,7.73
2024-05-09T02:49:30.389Z,7.73
2024-05-09T02:50:37.336Z,7.71
2024-05-09T02:51:31.262Z,7.71
2024-05-09T02:52:30.248Z,7.68
2024-05-09T02:53:30.289Z,7.70
2024-05-09T02:54:30.272Z,7.68
2024-05-09T02:55:30.279Z,7.67
2024-05-09T02:56:30.322Z,7.67
2024-05-09T02:57:30.232Z,7.64
2024-05-09T02:58:30.224Z,7.63
2024-05-09T02:59:30.291Z,7.61
2024-05-09T03:00:38.078Z,7.59
2024-05-09T03:01:31.322Z,7.61
2024-05-09T03:02:30.262Z,7.58
2024-05-09T03:03:30.476Z,7.56
2024-05-09T03:04:30.268Z,7.55
2024-05-09T03:05:30.212Z,7.55
2024-05-09T03:06:30.184Z,7.54
2024-05-09T03:07:30.212Z,7.52
2024-05-09T03:08:30.197Z,7.49
2024-05-09T03:09:30.156Z,7.49
2024-05-09T03:10:35.659Z,7.49
2024-05-09T03:11:31.254Z,7.48
2024-05-09T03:12:30.165Z,7.47
2024-05-09T03:13:30.133Z,7.44
2024-05-09T03:14:30.263Z,7.41
2024-05-09T03:15:30.116Z,7.40
2024-05-09T03:16:30.111Z,7.40
2024-05-09T03:17:30.414Z,7.39
2024-05-09T03:18:30.196Z,7.39
2024-05-09T03:19:30.202Z,7.37
2024-05-09T03:20:34.340Z,7.36
2024-05-09T03:21:30.080Z,7.36
2024-05-09T03:22:30.075Z,7.33
2024-05-09T03:23:30.100Z,7.33
2024-05-09T03:24:30.086Z,7.31
2024-05-09T03:25:30.140Z,7.30
2024-05-09T03:26:30.113Z,7.30
2024-05-09T03:27:30.052Z,7.30
2024-05-09T03:28:30.042Z,7.27
2024-05-09T03:29:30.203Z,7.29
2024-05-09T03:30:39.098Z,7.29
2024-05-09T03:31:31.055Z,7.29
2024-05-09T03:32:30.148Z,7.27
2024-05-09T03:33:30.402Z,7.27
2024-05-09T03:34:30.032Z,7.22
2024-05-09T03:35:30.159Z,7.22
2024-05-09T03:36:30.014Z,7.22
2024-05-09T03:37:30.047Z,7.21
2024-05-09T03:38:30.017Z,7.19
2024-05-09T03:39:29.980Z,7.18
2024-05-09T03:40:31.119Z,7.18
2024-05-09T03:41:30.154Z,7.16
2024-05-09T03:42:29.987Z,7.15
2024-05-09T03:43:29.985Z,7.13
2024-05-09T03:44:30.095Z,7.13
2024-05-09T03:45:29.964Z,7.12
2024-05-09T03:46:29.954Z,7.09
2024-05-09T03:47:30.056Z,7.09
2024-05-09T03:48:30.031Z,7.11
2024-05-09T03:49:30.026Z,7.08
2024-05-09T03:50:34.108Z,7.04
2024-05-09T03:51:29.918Z,7.04
2024-05-09T03:52:29.928Z,7.05
2024-05-09T03:53:29.954Z,7.03
2024-05-09T03:54:29.920Z,7.03
2024-05-09T03:55:29.930Z,7.03
2024-05-09T03:56:29.984Z,7.04
2024-05-09T03:57:29.916Z,7.03
2024-05-09T03:58:29.898Z,7.03
2024-05-09T03:59:29.992Z,7.03
2024-05-09T04:00:37.358Z,7.03
2024-05-09T04:01:31.063Z,7.03
2024-05-09T04:02:29.945Z,7.04
2024-05-09T04:03:30.069Z,7.05
2024-05-09T04:04:29.945Z,7.04
2024-05-09T04:05:29.998Z,7.04
2024-05-09T04:06:29.857Z,7.01
2024-05-09T04:07:29.865Z,7.04
2024-05-09T04:08:29.960Z,7.03
2024-05-09T04:09:29.841Z,7.04
2024-05-09T04:10:33.415Z,7.04
2024-05-09T04:11:29.911Z,7.03
2024-05-09T04:12:29.872Z,7.04
2024-05-09T04:13:29.830Z,7.05
2024-05-09T04:14:30.042Z,7.05
2024-05-09T04:15:29.821Z,7.05
2024-05-09T04:16:29.818Z,7.05
2024-05-09T04:17:29.993Z,7.05
2024-05-09T04:18:29.860Z,7.05
2024-05-09T04:19:29.978Z,7.09
2024-05-09T04:20:37.535Z,7.08
2024-05-09T04:21:30.790Z,7.08
2024-05-09T04:22:29.784Z,7.08
2024-05-09T04:23:29.830Z,7.08
2024-05-09T04:24:29.761Z,7.05
2024-05-09T04:25:29.784Z,7.09
2024-05-09T04:26:29.890Z,7.08
2024-05-09T04:27:29.745Z,7.08
2024-05-09T04:28:29.751Z,7.05
2024-05-09T04:29:30.018Z,7.08
2024-05-09T04:30:37.461Z,7.05
2024-05-09T04:31:30.771Z,7.05
2024-05-09T04:32:29.801Z,7.08
2024-05-09T04:33:30.026Z,7.05
2024-05-09T04:34:29.824Z,7.05
2024-05-09T04:35:29.817Z,7.04
2024-05-09T04:36:29.730Z,7.05
2024-05-09T04:37:29.732Z,7.05
2024-05-09T04:38:29.713Z,7.05
2024-05-09T04:39:29.724Z,7.04
2024-05-09T04:40:34.163Z,7.04
2024-05-09T04:41:29.730Z,7.08
2024-05-09T04:42:29.690Z,7.08
2024-05-09T04:43:29.679Z,7.08
2024-05-09T04:44:29.700Z,7.11
2024-05-09T04:45:29.652Z,7.12
2024-05-09T04:46:29.642Z,7.12
2024-05-09T04:47:29.791Z,7.12
2024-05-09T04:48:29.870Z,7.15
2024-05-09T04:49:29.723Z,7.16
2024-05-09T04:50:36.181Z,7.16
2024-05-09T04:51:30.632Z,7.18
2024-05-09T04:52:29.609Z,7.18
2024-05-09T04:53:29.703Z,7.19
2024-05-09T04:54:34.190Z,7.19
2024-05-09T04:55:29.626Z,7.21
2024-05-09T04:56:29.614Z,7.21
2024-05-09T04:57:29.669Z,7.22
2024-05-09T04:58:29.584Z,7.22
2024-05-09T04:59:29.725Z,7.23
2024-05-09T05:00:35.914Z,7.26
2024-05-09T05:01:30.677Z,7.26
2024-05-09T05:02:29.680Z,7.27
2024-05-09T05:03:29.741Z,7.29
2024-05-09T05:04:29.596Z,7.30
2024-05-09T05:05:29.612Z,7.30
2024-05-09T05:06:29.551Z,7.31
2024-05-09T05:07:29.570Z,7.33
2024-05-09T05:08:29.555Z,7.34
2024-05-09T05:09:29.544Z,7.36
2024-05-09T05:10:35.511Z,7.39
2024-05-09T05:11:30.682Z,7.39
2024-05-09T05:12:29.665Z,7.40
2024-05-09T05:13:29.542Z,7.41
2024-05-09T05:14:29.606Z,7.45
2024-05-09T05:15:29.524Z,7.48
2024-05-09T05:16:29.502Z,7.51
2024-05-09T05:17:29.669Z,7.51
2024-05-09T05:18:29.740Z,7.52
2024-05-09T05:19:29.681Z,7.54
2024-05-09T05:20:33.580Z,7.56
2024-05-09T05:21:29.495Z,7.59
2024-05-09T05:22:29.494Z,7.63
2024-05-09T05:23:29.564Z,7.68
2024-05-09T05:24:29.459Z,7.68
2024-05-09T05:25:29.475Z,7.73
2024-05-09T05:26:29.494Z,7.73
2024-05-09T05:27:29.455Z,7.75
2024-05-09T05:28:29.425Z,7.77
2024-05-09T05:29:29.457Z,7.82
2024-05-09T05:30:34.434Z,7.85
2024-05-09T05:31:29.482Z,7.86
2024-05-09T05:32:29.551Z,7.88
2024-05-09T05:33:29.628Z,7.89
2024-05-09T05:34:29.390Z,7.92
2024-05-09T05:35:29.535Z,7.95
2024-05-09T05:36:29.395Z,7.98
2024-05-09T05:37:29.412Z,8.01
2024-05-09T05:38:29.418Z,8.03
2024-05-09T05:39:29.385Z,8.09
2024-05-09T05:40:36.157Z,8.10
2024-05-09T05:41:30.418Z,8.11
2024-05-09T05:42:29.365Z,8.14
2024-05-09T05:43:29.353Z,8.16
2024-05-09T05:44:29.438Z,8.17
2024-05-09T05:45:29.367Z,8.21
2024-05-09T05:46:29.317Z,8.24
2024-05-09T05:47:29.452Z,8.25
2024-05-09T05:48:29.429Z,8.29
2024-05-09T05:49:29.596Z,8.32
2024-05-09T05:50:35.483Z,8.35
2024-05-09T05:51:30.308Z,8.39
2024-05-09T05:52:29.284Z,8.42
2024-05-09T05:53:29.325Z,8.43
2024-05-09T05:54:29.268Z,8.49
2024-05-09T05:55:29.284Z,8.50
2024-05-09T05:56:29.344Z,8.54
2024-05-09T05:57:29.258Z,8.58
2024-05-09T05:58:29.250Z,8.61
2024-05-09T05:59:29.360Z,8.65
2024-05-09T06:00:35.522Z,8.68
2024-05-09T06:01:30.288Z,8.71
2024-05-09T06:02:29.329Z,8.74
2024-05-09T06:03:29.318Z,8.77
2024-05-09T06:04:29.382Z,8.79
2024-05-09T06:05:29.286Z,8.82
2024-05-09T06:06:29.208Z,8.85
2024-05-09T06:07:29.206Z,8.86
2024-05-09T06:08:30.445Z,8.89
2024-05-09T06:09:29.180Z,8.92
2024-05-09T06:10:37.491Z,8.95
2024-05-09T06:11:30.281Z,8.97
2024-05-09T06:12:29.327Z,8.98
2024-05-09T06:13:29.197Z,9.01
2024-05-09T06:14:29.307Z,9.01
2024-05-09T06:15:29.139Z,9.05
2024-05-09T06:16:29.143Z,9.11
2024-05-09T06:17:29.272Z,9.12
2024-05-09T06:18:29.437Z,9.17
2024-05-09T06:19:29.228Z,9.20
2024-05-09T06:20:35.743Z,9.21
2024-05-09T06:21:30.143Z,9.26
2024-05-09T06:22:29.163Z,9.29
2024-05-09T06:23:29.141Z,9.30
2024-05-09T06:24:29.090Z,9.34
2024-05-09T06:25:29.129Z,9.37
2024-05-09T06:26:29.221Z,9.39
2024-05-09T06:27:29.092Z,9.42
2024-05-09T06:28:29.064Z,9.45
2024-05-09T06:29:29.173Z,9.48
2024-05-09T06:30:37.574Z,9.52
2024-05-09T06:31:30.080Z,9.55
2024-05-09T06:32:29.313Z,9.57
2024-05-09T06:33:29.330Z,9.59
2024-05-09T06:34:29.112Z,9.63
2024-05-09T06:35:29.136Z,9.64
2024-05-09T06:36:29.017Z,9.67
2024-05-09T06:37:29.032Z,9.71
2024-05-09T06:38:29.084Z,9.75
2024-05-09T06:39:29.008Z,9.78
2024-05-09T06:40:36.835Z,9.80
2024-05-09T06:41:30.119Z,9.82
2024-05-09T06:42:28.985Z,9.85
2024-05-09T06:43:29.021Z,9.88
2024-05-09T06:44:29.036Z,9.92
2024-05-09T06:45:28.962Z,9.96
2024-05-09T06:46:28.976Z,9.99
2024-05-09T06:47:29.149Z,10.00
2024-05-09T06:48:29.054Z,10.05
2024-05-09T06:49:29.134Z,10.07
2024-05-09T06:50:36.808Z,10.11
2024-05-09T06:51:29.948Z,10.13
2024-05-09T06:52:28.928Z,10.15
2024-05-09T06:53:28.999Z,10.17
2024-05-09T06:54:28.921Z,10.20
2024-05-09T06:55:28.990Z,10.23
2024-05-09T06:56:29.018Z,10.25
2024-05-09T06:57:28.917Z,10.28
2024-05-09T06:58:28.894Z,10.31
2024-05-09T06:59:29.251Z,10.33
2024-05-09T07:00:35.787Z,10.35
2024-05-09T07:01:29.976Z,10.38
2024-05-09T07:02:29.057Z,10.41
2024-05-09T07:03:29.000Z,10.42
2024-05-09T07:04:29.042Z,10.47
2024-05-09T07:05:28.957Z,10.49
2024-05-09T07:06:28.847Z,10.52
2024-05-09T07:07:28.890Z,10.55
2024-05-09T07:08:28.857Z,10.58
2024-05-09T07:09:28.826Z,10.59
2024-05-09T07:10:34.353Z,10.63
2024-05-09T07:11:28.869Z,10.63
2024-05-09T07:12:28.985Z,10.66
2024-05-09T07:13:28.853Z,10.69
2024-05-09T07:14:28.919Z,10.69
2024-05-09T07:15:28.819Z,10.70
2024-05-09T07:16:28.782Z,10.76
2024-05-09T07:17:28.932Z,10.79
2024-05-09T07:18:29.007Z,10.83
2024-05-09T07:19:28.913Z,10.87
2024-05-09T07:20:34.425Z,10.91
2024-05-09T07:21:28.757Z,10.94
2024-05-09T07:22:28.739Z,10.95
2024-05-09T07:23:28.803Z,10.97
2024-05-09T07:24:28.723Z,10.97
2024-05-09T07:25:29.019Z,11.02
2024-05-09T07:26:28.796Z,11.03
2024-05-09T07:27:28.715Z,11.06
2024-05-09T07:28:28.704Z,11.13
2024-05-09T07:29:28.833Z,11.21
2024-05-09T07:30:33.465Z,11.28
2024-05-09T07:31:28.711Z,11.35
2024-05-09T07:32:28.985Z,11.39
2024-05-09T07:33:29.014Z,11.43
2024-05-09T07:34:28.755Z,11.48
2024-05-09T07:35:28.953Z,11.49
2024-05-09T07:36:28.683Z,11.53
2024-05-09T07:37:28.666Z,11.60
2024-05-09T07:38:28.697Z,11.64
2024-05-09T07:39:28.640Z,11.67
2024-05-09T07:40:35.148Z,11.70
2024-05-09T07:41:29.713Z,11.79
2024-05-09T07:42:28.624Z,11.85
2024-05-09T07:43:28.628Z,11.94
2024-05-09T07:44:28.752Z,11.98
2024-05-09T07:45:45.048Z,12.04
2024-05-09T07:47:36.949Z,12.08
2024-05-09T07:48:57.120Z,12.15
2024-05-09T07:50:01.348Z,12.16
2024-05-09T07:53:32.506Z,12.31
2024-05-09T07:53:40.119Z,12.34
2024-05-09T07:54:29.811Z,12.34
2024-05-09T07:55:28.776Z,12.37
2024-05-09T07:56:28.850Z,12.41
2024-05-09T07:57:28.641Z,12.44
2024-05-09T07:58:28.576Z,12.47
2024-05-09T07:59:28.566Z,12.53
2024-05-09T08:00:31.543Z,12.56
2024-05-09T08:01:28.824Z,12.59
2024-05-09T08:02:28.791Z,12.66
2024-05-09T08:03:28.847Z,12.76
2024-05-09T08:04:28.558Z,12.81
2024-05-09T08:05:28.746Z,12.88
2024-05-09T08:06:28.560Z,12.94
2024-05-09T08:07:28.488Z,12.98
2024-05-09T08:08:28.514Z,13.02
2024-05-09T08:09:28.467Z,13.06
2024-05-09T08:10:29.245Z,13.10
2024-05-09T08:11:28.461Z,13.10
2024-05-09T08:12:28.508Z,13.10
2024-05-09T08:13:28.440Z,13.13
2024-05-09T08:14:28.437Z,13.16
2024-05-09T08:15:28.642Z,13.19
2024-05-09T08:16:28.521Z,13.24
2024-05-09T08:17:28.569Z,13.27
2024-05-09T08:18:28.673Z,13.28
2024-05-09T08:19:28.453Z,13.29
2024-05-09T08:20:33.467Z,13.35
2024-05-09T08:21:28.445Z,13.36
2024-05-09T08:22:28.397Z,13.32
2024-05-09T08:23:28.379Z,13.35
2024-05-09T08:24:28.446Z,13.37
2024-05-09T08:25:28.446Z,13.42
2024-05-09T08:26:28.367Z,13.48
2024-05-09T08:27:28.449Z,13.53
2024-05-09T08:28:28.409Z,13.57
2024-05-09T08:29:28.346Z,13.62
2024-05-09T08:30:33.843Z,13.66
2024-05-09T08:31:29.685Z,13.72
2024-05-09T08:32:28.399Z,13.75
2024-05-09T08:33:28.596Z,13.78
2024-05-09T08:34:28.445Z,13.81
2024-05-09T08:35:28.330Z,13.86
2024-05-09T08:36:28.383Z,13.88
2024-05-09T08:37:32.822Z,13.91
2024-05-09T08:38:29.323Z,13.95
2024-05-09T08:39:28.317Z,13.99
2024-05-09T08:40:34.553Z,13.99
2024-05-09T08:41:29.349Z,14.01
2024-05-09T08:42:28.285Z,14.01
2024-05-09T08:43:28.339Z,14.01
2024-05-09T08:44:28.271Z,13.99
2024-05-09T08:45:28.284Z,14.03
2024-05-09T08:46:28.450Z,14.09
2024-05-09T08:47:28.432Z,14.13
2024-05-09T08:48:28.364Z,14.19
2024-05-09T08:49:28.369Z,14.21
2024-05-09T08:50:35.953Z,14.24
2024-05-09T08:51:29.322Z,14.27
2024-05-09T08:52:28.240Z,14.30
2024-05-09T08:53:28.246Z,14.31
2024-05-09T08:54:28.315Z,14.34
2024-05-09T08:55:28.245Z,14.31
2024-05-09T08:56:28.243Z,14.30
2024-05-09T08:57:28.245Z,14.30
2024-05-09T08:58:28.207Z,14.28
2024-05-09T08:59:28.213Z,14.30
2024-05-09T09:00:35.870Z,14.33
2024-05-09T09:01:29.232Z,14.34
2024-05-09T09:02:28.432Z,14.38
2024-05-09T09:03:28.316Z,14.36
2024-05-09T09:04:28.268Z,14.42
2024-05-09T09:05:28.327Z,14.49
2024-05-09T09:06:28.225Z,14.61
2024-05-09T09:07:28.284Z,14.70
2024-05-09T09:08:28.166Z,14.79
2024-05-09T09:09:28.173Z,14.82
2024-05-09T09:10:32.081Z,14.85
2024-05-09T09:11:28.173Z,14.85
2024-05-09T09:12:28.157Z,14.87
2024-05-09T09:13:28.131Z,14.86
2024-05-09T09:14:28.113Z,14.89
2024-05-09T09:15:28.189Z,14.87
2024-05-09T09:16:28.147Z,14.89
2024-05-09T09:17:28.160Z,14.93
2024-05-09T09:18:28.583Z,14.95
2024-05-09T09:19:28.215Z,15.00
2024-05-09T09:20:35.720Z,15.04
2024-05-09T09:21:29.129Z,15.07
2024-05-09T09:22:28.067Z,15.07
2024-05-09T09:23:28.066Z,15.08
2024-05-09T09:24:28.143Z,15.13
2024-05-09T09:25:28.063Z,15.18
2024-05-09T09:26:28.103Z,15.18
2024-05-09T09:27:28.051Z,15.20
2024-05-09T09:28:28.040Z,15.31
2024-05-09T09:29:28.049Z,15.35
2024-05-09T09:30:36.152Z,15.40
2024-05-09T09:31:29.043Z,15.44
2024-05-09T09:32:28.160Z,15.44
2024-05-09T09:33:28.093Z,15.43
2024-05-09T09:34:28.233Z,15.47
2024-05-09T09:35:28.002Z,15.53
2024-05-09T09:36:27.996Z,15.55
2024-05-09T09:37:27.982Z,15.56
2024-05-09T09:38:27.971Z,15.63
2024-05-09T09:39:28.019Z,15.75
2024-05-09T09:40:32.163Z,15.86
2024-05-09T09:41:28.010Z,15.95
2024-05-09T09:42:28.080Z,15.99
2024-05-09T09:43:27.990Z,16.06
2024-05-09T09:44:27.953Z,16.11
2024-05-09T09:45:27.990Z,16.13
2024-05-09T09:46:27.986Z,16.13
2024-05-09T09:47:27.998Z,16.14
2024-05-09T09:48:27.992Z,16.16
2024-05-09T09:49:27.932Z,16.17
2024-05-09T09:50:34.032Z,16.18
2024-05-09T09:51:27.994Z,16.17
2024-05-09T09:52:27.970Z,16.16
2024-05-09T09:53:27.908Z,16.13
2024-05-09T09:54:27.963Z,16.10
2024-05-09T09:55:27.892Z,16.07
2024-05-09T09:56:27.874Z,16.04
2024-05-09T09:57:27.904Z,16.00
2024-05-09T09:58:27.886Z,15.98
2024-05-09T09:59:27.872Z,15.99
2024-05-09T10:00:32.945Z,16.07
2024-05-09T10:01:27.990Z,16.11
2024-05-09T10:02:28.063Z,16.11
2024-05-09T10:03:28.039Z,16.17
2024-05-09T10:04:27.917Z,16.21
2024-05-09T10:05:28.223Z,16.22
2024-05-09T10:06:27.853Z,16.18
2024-05-09T10:07:27.798Z,16.17
2024-05-09T10:08:27.807Z,16.17
2024-05-09T10:09:27.847Z,16.14
2024-05-09T10:10:32.398Z,16.13
2024-05-09T10:11:27.960Z,16.10
2024-05-09T10:12:27.802Z,16.08
2024-05-09T10:13:27.801Z,16.07
2024-05-09T10:14:27.769Z,16.04
2024-05-09T10:15:27.856Z,16.04
2024-05-09T10:16:27.809Z,16.06
2024-05-09T10:17:27.875Z,16.04
2024-05-09T10:18:30.270Z,16.04
2024-05-09T10:19:27.854Z,16.02
2024-05-09T10:20:32.271Z,16.02
2024-05-09T10:21:27.813Z,16.02
2024-05-09T10:22:27.784Z,15.99
2024-05-09T10:23:27.756Z,15.99
2024-05-09T10:24:27.761Z,15.99
2024-05-09T10:25:27.739Z,16.00
2024-05-09T10:26:27.698Z,16.04
2024-05-09T10:27:27.724Z,16.07
2024-05-09T10:28:27.711Z,16.07
2024-05-09T10:29:27.691Z,16.08
2024-05-09T10:30:34.055Z,16.10
2024-05-09T10:31:28.695Z,16.11
2024-05-09T10:32:27.728Z,16.11
2024-05-09T10:33:27.954Z,16.13
2024-05-09T10:34:27.825Z,16.16
2024-05-09T10:35:27.679Z,16.17
2024-05-09T10:36:27.722Z,16.30
2024-05-09T10:37:27.676Z,16.36
2024-05-09T10:38:27.631Z,16.42
2024-05-09T10:39:27.646Z,16.49
2024-05-09T10:40:31.359Z,16.55
2024-05-09T10:41:27.668Z,16.57
2024-05-09T10:42:27.630Z,16.62
2024-05-09T10:43:27.635Z,16.65
2024-05-09T10:44:27.595Z,16.66
2024-05-09T10:45:27.630Z,16.72
2024-05-09T10:46:27.658Z,16.74
2024-05-09T10:47:27.689Z,16.80
2024-05-09T10:48:27.825Z,16.80
2024-05-09T10:49:27.638Z,16.81
2024-05-09T10:50:31.836Z,16.84
2024-05-09T10:51:27.617Z,16.85
2024-05-09T10:52:27.597Z,16.87
2024-05-09T10:53:27.645Z,16.87
2024-05-09T10:54:27.599Z,16.88
2024-05-09T10:55:27.704Z,16.91
2024-05-09T10:56:27.531Z,16.91
2024-05-09T10:57:27.590Z,16.94
2024-05-09T10:58:27.527Z,16.94
2024-05-09T10:59:27.518Z,17.00
2024-05-09T11:00:33.387Z,17.02
2024-05-09T11:01:28.782Z,17.05
2024-05-09T11:02:27.692Z,17.07
2024-05-09T11:03:27.624Z,17.13
2024-05-09T11:04:27.547Z,17.17
2024-05-09T11:05:27.714Z,17.17
2024-05-09T11:06:27.487Z,17.18
2024-05-09T11:07:27.482Z,17.17
2024-05-09T11:08:27.492Z,17.15
2024-05-09T11:09:27.466Z,17.15
2024-05-09T11:10:33.606Z,17.12
2024-05-09T11:11:27.478Z,17.15
2024-05-09T11:12:27.632Z,17.17
2024-05-09T11:13:27.414Z,17.17
2024-05-09T11:14:27.441Z,17.20
2024-05-09T11:15:27.452Z,17.22
2024-05-09T11:16:27.435Z,17.25
2024-05-09T11:17:28.667Z,17.30
2024-05-09T11:18:29.778Z,17.32
2024-05-09T11:19:27.511Z,17.38
2024-05-09T11:20:29.929Z,17.38
2024-05-09T11:21:27.377Z,17.38
2024-05-09T11:22:27.450Z,17.39
2024-05-09T11:23:27.431Z,17.39
2024-05-09T11:24:27.352Z,17.38
2024-05-09T11:25:27.353Z,17.36
2024-05-09T11:26:27.354Z,17.38
2024-05-09T11:27:27.331Z,17.38
2024-05-09T11:28:27.378Z,17.39
2024-05-09T11:29:27.359Z,17.43
2024-05-09T11:30:31.843Z,17.45
2024-05-09T11:31:27.666Z,17.47
2024-05-09T11:32:27.424Z,17.49
2024-05-09T11:33:27.322Z,17.55
2024-05-09T11:34:27.415Z,17.62
2024-05-09T11:35:27.306Z,17.66
2024-05-09T11:36:27.345Z,17.68
2024-05-09T11:37:27.363Z,17.73
2024-05-09T11:38:27.296Z,17.79
2024-05-09T11:39:27.403Z,17.76
2024-05-09T11:40:32.396Z,17.76
2024-05-09T11:41:27.285Z,17.76
2024-05-09T11:42:27.260Z,17.79
2024-05-09T11:43:27.388Z,17.81
2024-05-09T11:44:27.284Z,17.80
2024-05-09T11:45:27.241Z,17.81
2024-05-09T11:46:27.347Z,17.81
2024-05-09T11:47:27.315Z,17.81
2024-05-09T11:48:27.754Z,17.81
2024-05-09T11:49:27.422Z,17.84
2024-05-09T11:50:32.479Z,17.84
2024-05-09T11:51:28.270Z,17.84
2024-05-09T11:52:27.222Z,17.86
2024-05-09T11:53:27.220Z,17.92
2024-05-09T11:54:27.239Z,17.96
2024-05-09T11:55:28.383Z,18.01
2024-05-09T11:56:27.169Z,18.03
2024-05-09T11:57:27.164Z,18.08
2024-05-09T11:58:27.214Z,18.10
2024-05-09T11:59:27.171Z,18.11
2024-05-09T12:00:34.117Z,18.11
2024-05-09T12:01:28.426Z,18.13
2024-05-09T12:02:27.286Z,18.10
2024-05-09T12:03:27.177Z,18.11
2024-05-09T12:04:27.219Z,18.11
2024-05-09T12:05:27.376Z,18.10
2024-05-09T12:06:27.140Z,18.14
2024-05-09T12:07:27.165Z,18.16
2024-05-09T12:08:27.108Z,18.14
2024-05-09T12:09:27.095Z,18.14
2024-05-09T12:10:33.104Z,18.16
2024-05-09T12:11:28.175Z,18.16
2024-05-09T12:12:27.087Z,18.16
2024-05-09T12:13:27.175Z,18.14
2024-05-09T12:14:27.075Z,18.16
2024-05-09T12:15:27.081Z,18.16
2024-05-09T12:16:27.182Z,18.14
2024-05-09T12:17:27.154Z,18.13
2024-05-09T12:18:27.092Z,18.17
2024-05-09T12:19:27.090Z,18.16
2024-05-09T12:20:35.285Z,18.20
2024-05-09T12:21:28.119Z,18.24
2024-05-09T12:22:27.040Z,18.29
2024-05-09T12:23:27.031Z,18.29
2024-05-09T12:24:27.010Z,18.31
2024-05-09T12:25:27.005Z,18.31
2024-05-09T12:26:27.000Z,18.31
2024-05-09T12:27:26.989Z,18.32
2024-05-09T12:28:27.015Z,18.34
2024-05-09T12:29:27.014Z,18.36
2024-05-09T12:30:35.499Z,18.39
2024-05-09T12:31:28.078Z,18.42
2024-05-09T12:32:27.170Z,18.49
2024-05-09T12:33:27.138Z,18.54
2024-05-09T12:34:27.032Z,18.60
2024-05-09T12:35:26.960Z,18.65
2024-05-09T12:36:26.948Z,18.69
2024-05-09T12:37:26.970Z,18.71
2024-05-09T12:38:26.931Z,18.75
2024-05-09T12:39:26.935Z,18.79
2024-05-09T12:40:35.152Z,18.86
2024-05-09T12:41:27.965Z,18.91
2024-05-09T12:42:28.602Z,18.94
2024-05-09T12:43:27.055Z,18.96
2024-05-09T12:44:26.900Z,19.00
2024-05-09T12:45:26.898Z,18.99
2024-05-09T12:46:26.998Z,19.00
2024-05-09T12:47:27.021Z,19.07
2024-05-09T12:48:26.943Z,19.12
2024-05-09T12:49:27.045Z,19.19
2024-05-09T12:50:32.467Z,19.24
2024-05-09T12:51:26.854Z,19.31
2024-05-09T12:52:26.859Z,19.32
2024-05-09T12:53:26.855Z,19.35
2024-05-09T12:54:26.836Z,19.40
2024-05-09T12:55:28.112Z,19.43
2024-05-09T12:56:26.826Z,19.45
2024-05-09T12:57:26.822Z,19.47
2024-05-09T12:58:26.899Z,19.52
2024-05-09T12:59:26.829Z,19.56
2024-05-09T13:00:31.579Z,19.63
2024-05-09T13:01:26.922Z,19.70
2024-05-09T13:02:26.991Z,19.78
2024-05-09T13:03:26.884Z,19.82
2024-05-09T13:04:27.053Z,19.85
2024-05-09T13:05:26.878Z,19.89
2024-05-09T13:06:26.818Z,19.86
2024-05-09T13:07:26.806Z,19.90
2024-05-09T13:08:26.757Z,19.98
2024-05-09T13:09:26.756Z,20.05
2024-05-09T13:10:31.991Z,20.10
2024-05-09T13:11:26.785Z,20.18
2024-05-09T13:12:26.740Z,20.26